sensor_id;sensor_type;location;lat;lon;timestamp;temperature;humidity
12384;DHT22;6256;63.808;20.336;2023-03-17T00:00:42;-11.80;99.90
12384;DHT22;6256;63.808;20.336;2023-03-17T00:03:25;-11.80;99.90
12384;DHT22;6256;63.808;20.336;2023-03-17T00:05:53;-11.90;99.90
12384;DHT22;6256;63.808;20.336;2023-03-17T00:08:27;-11.90;99.90
12384;DHT22;6256;63.808;20.336;2023-03-17T00:10:54;-11.90;99.90
12384;DHT22;6256;63.808;20.336;2023-03-17T00:13:20;-11.90;99.90
12384;DHT22;6256;63.808;20.336;2023-03-17T00:15:52;-12.00;99.90
12384;DHT22;6256;63.808;20.336;2023-03-17T00:18:19;-12.00;99.90
12384;DHT22;6256;63.808;20.336;2023-03-17T00:20:46;-12.00;99.90
12384;DHT22;6256;63.808;20.336;2023-03-17T00:23:18;-12.10;99.90
12384;DHT22;6256;63.808;20.336;2023-03-17T00:25:45;-12.00;99.90
12384;DHT22;6256;63.808;20.336;2023-03-17T00:28:23;-12.10;99.90
12384;DHT22;6256;63.808;20.336;2023-03-17T00:30:58;-12.10;99.90
12384;DHT22;6256;63.808;20.336;2023-03-17T00:33:26;-12.10;99.90
12384;DHT22;6256;63.808;20.336;2023-03-17T00:35:53;-12.10;99.90
12384;DHT22;6256;63.808;20.336;2023-03-17T00:38:20;-12.10;99.90
12384;DHT22;6256;63.808;20.336;2023-03-17T00:40:46;-12.10;99.90
12384;DHT22;6256;63.808;20.336;2023-03-17T00:43:13;-12.20;99.90
12384;DHT22;6256;63.808;20.336;2023-03-17T00:45:40;-12.20;99.90
12384;DHT22;6256;63.808;20.336;2023-03-17T00:48:14;-12.20;99.90
12384;DHT22;6256;63.808;20.336;2023-03-17T00:50:41;-12.20;99.90
12384;DHT22;6256;63.808;20.336;2023-03-17T00:53:11;-12.20;99.90
12384;DHT22;6256;63.808;20.336;2023-03-17T00:55:37;-12.20;99.90
12384;DHT22;6256;63.808;20.336;2023-03-17T00:58:52;-12.30;99.90
12384;DHT22;6256;63.808;20.336;2023-03-17T01:00:59;-12.20;99.90
12384;DHT22;6256;63.808;20.336;2023-03-17T01:03:26;-12.30;99.90
12384;DHT22;6256;63.808;20.336;2023-03-17T01:05:53;-12.30;99.90
12384;DHT22;6256;63.808;20.336;2023-03-17T01:08:21;-12.30;99.90
12384;DHT22;6256;63.808;20.336;2023-03-17T01:10:48;-12.40;99.90
12384;DHT22;6256;63.808;20.336;2023-03-17T01:13:14;-12.40;99.90
12384;DHT22;6256;63.808;20.336;2023-03-17T01:15:46;-12.50;99.90
12384;DHT22;6256;63.808;20.336;2023-03-17T01:18:13;-12.60;99.90
12384;DHT22;6256;63.808;20.336;2023-03-17T01:20:42;-12.60;99.90
12384;DHT22;6256;63.808;20.336;2023-03-17T01:23:08;-12.60;99.90
12384;DHT22;6256;63.808;20.336;2023-03-17T01:25:35;-12.60;99.90
12384;DHT22;6256;63.808;20.336;2023-03-17T01:28:01;-12.70;99.90
12384;DHT22;6256;63.808;20.336;2023-03-17T01:30:36;-12.80;99.90
12384;DHT22;6256;63.808;20.336;2023-03-17T01:33:03;-12.80;99.90
12384;DHT22;6256;63.808;20.336;2023-03-17T01:35:30;-12.90;99.90
12384;DHT22;6256;63.808;20.336;2023-03-17T01:37:57;-12.90;99.90
12384;DHT22;6256;63.808;20.336;2023-03-17T01:40:26;-12.90;99.90
12384;DHT22;6256;63.808;20.336;2023-03-17T01:42:58;-13.00;99.90
12384;DHT22;6256;63.808;20.336;2023-03-17T01:48:30;-13.10;99.90
12384;DHT22;6256;63.808;20.336;2023-03-17T01:50:57;-13.10;99.90
12384;DHT22;6256;63.808;20.336;2023-03-17T01:53:23;-13.20;99.90
12384;DHT22;6256;63.808;20.336;2023-03-17T01:55:50;-13.20;99.90
12384;DHT22;6256;63.808;20.336;2023-03-17T01:58:18;-13.30;99.90
12384;DHT22;6256;63.808;20.336;2023-03-17T02:00:45;-13.30;99.90
12384;DHT22;6256;63.808;20.336;2023-03-17T02:03:11;-13.30;99.90
12384;DHT22;6256;63.808;20.336;2023-03-17T02:05:37;-13.30;99.90
12384;DHT22;6256;63.808;20.336;2023-03-17T02:08:10;-13.40;99.90
12384;DHT22;6256;63.808;20.336;2023-03-17T02:10:36;-13.40;99.90
12384;DHT22;6256;63.808;20.336;2023-03-17T02:13:03;-13.40;99.90
12384;DHT22;6256;63.808;20.336;2023-03-17T02:15:56;-13.40;99.90
12384;DHT22;6256;63.808;20.336;2023-03-17T02:18:22;-13.40;99.90
12384;DHT22;6256;63.808;20.336;2023-03-17T02:23:23;-13.40;99.90
12384;DHT22;6256;63.808;20.336;2023-03-17T02:25:52;-13.40;99.90
12384;DHT22;6256;63.808;20.336;2023-03-17T02:28:22;-13.40;99.90
12384;DHT22;6256;63.808;20.336;2023-03-17T02:30:50;-13.40;99.90
12384;DHT22;6256;63.808;20.336;2023-03-17T02:33:17;-13.40;99.90
12384;DHT22;6256;63.808;20.336;2023-03-17T02:35:43;-13.50;99.90
12384;DHT22;6256;63.808;20.336;2023-03-17T02:38:09;-13.50;99.90
12384;DHT22;6256;63.808;20.336;2023-03-17T02:40:34;-13.60;99.90
12384;DHT22;6256;63.808;20.336;2023-03-17T02:43:00;-13.70;99.90
12384;DHT22;6256;63.808;20.336;2023-03-17T02:45:27;-13.70;99.90
12384;DHT22;6256;63.808;20.336;2023-03-17T02:47:53;-13.80;99.90
12384;DHT22;6256;63.808;20.336;2023-03-17T02:50:22;-13.80;99.90
12384;DHT22;6256;63.808;20.336;2023-03-17T02:52:49;-13.80;99.90
12384;DHT22;6256;63.808;20.336;2023-03-17T02:55:15;-13.80;99.90
12384;DHT22;6256;63.808;20.336;2023-03-17T02:57:41;-13.80;99.90
12384;DHT22;6256;63.808;20.336;2023-03-17T03:00:07;-13.80;99.90
12384;DHT22;6256;63.808;20.336;2023-03-17T03:02:35;-13.90;99.90
12384;DHT22;6256;63.808;20.336;2023-03-17T03:05:02;-13.90;99.90
12384;DHT22;6256;63.808;20.336;2023-03-17T03:07:28;-13.90;99.90
12384;DHT22;6256;63.808;20.336;2023-03-17T03:09:54;-13.90;99.90
12384;DHT22;6256;63.808;20.336;2023-03-17T03:12:19;-13.90;99.90
12384;DHT22;6256;63.808;20.336;2023-03-17T03:14:45;-13.90;99.90
12384;DHT22;6256;63.808;20.336;2023-03-17T03:17:12;-13.90;99.90
12384;DHT22;6256;63.808;20.336;2023-03-17T03:19:38;-13.90;99.90
12384;DHT22;6256;63.808;20.336;2023-03-17T03:22:04;-13.90;99.90
12384;DHT22;6256;63.808;20.336;2023-03-17T03:24:30;-13.90;99.90
12384;DHT22;6256;63.808;20.336;2023-03-17T03:26:56;-13.90;99.90
12384;DHT22;6256;63.808;20.336;2023-03-17T03:29:22;-13.90;99.90
12384;DHT22;6256;63.808;20.336;2023-03-17T03:31:48;-13.80;99.90
12384;DHT22;6256;63.808;20.336;2023-03-17T03:34:14;-13.80;99.90
12384;DHT22;6256;63.808;20.336;2023-03-17T03:36:40;-13.90;99.90
12384;DHT22;6256;63.808;20.336;2023-03-17T03:39:06;-13.90;99.90
12384;DHT22;6256;63.808;20.336;2023-03-17T03:41:33;-13.90;99.90
12384;DHT22;6256;63.808;20.336;2023-03-17T03:43:59;-14.00;99.90
12384;DHT22;6256;63.808;20.336;2023-03-17T03:46:25;-13.90;99.90
12384;DHT22;6256;63.808;20.336;2023-03-17T03:48:51;-13.90;99.90
12384;DHT22;6256;63.808;20.336;2023-03-17T03:51:17;-13.90;99.90
12384;DHT22;6256;63.808;20.336;2023-03-17T03:53:43;-13.80;99.90
12384;DHT22;6256;63.808;20.336;2023-03-17T03:56:09;-13.80;99.90
12384;DHT22;6256;63.808;20.336;2023-03-17T03:58:35;-13.80;99.90
12384;DHT22;6256;63.808;20.336;2023-03-17T04:01:05;-13.70;99.90
12384;DHT22;6256;63.808;20.336;2023-03-17T04:03:31;-13.70;99.90
12384;DHT22;6256;63.808;20.336;2023-03-17T04:05:57;-13.60;99.90
12384;DHT22;6256;63.808;20.336;2023-03-17T04:08:23;-13.50;99.90
12384;DHT22;6256;63.808;20.336;2023-03-17T04:10:50;-13.50;99.90
12384;DHT22;6256;63.808;20.336;2023-03-17T04:13:15;-13.40;99.90
12384;DHT22;6256;63.808;20.336;2023-03-17T04:15:41;-13.40;99.90
12384;DHT22;6256;63.808;20.336;2023-03-17T04:18:07;-13.30;99.90
12384;DHT22;6256;63.808;20.336;2023-03-17T04:20:33;-13.30;99.90
12384;DHT22;6256;63.808;20.336;2023-03-17T04:22:58;-13.20;99.90
12384;DHT22;6256;63.808;20.336;2023-03-17T04:25:24;-13.20;99.90
12384;DHT22;6256;63.808;20.336;2023-03-17T04:27:50;-13.20;99.90
12384;DHT22;6256;63.808;20.336;2023-03-17T04:30:16;-13.20;99.90
12384;DHT22;6256;63.808;20.336;2023-03-17T04:32:43;-13.20;99.90
12384;DHT22;6256;63.808;20.336;2023-03-17T04:35:16;-13.10;99.90
12384;DHT22;6256;63.808;20.336;2023-03-17T04:37:42;-13.10;99.90
12384;DHT22;6256;63.808;20.336;2023-03-17T04:40:10;-13.00;99.90
12384;DHT22;6256;63.808;20.336;2023-03-17T04:42:36;-12.90;99.90
12384;DHT22;6256;63.808;20.336;2023-03-17T04:45:03;-12.90;99.90
12384;DHT22;6256;63.808;20.336;2023-03-17T04:47:29;-12.80;99.90
12384;DHT22;6256;63.808;20.336;2023-03-17T04:49:55;-12.70;99.90
12384;DHT22;6256;63.808;20.336;2023-03-17T04:52:21;-12.60;99.90
12384;DHT22;6256;63.808;20.336;2023-03-17T04:54:47;-12.50;99.90
12384;DHT22;6256;63.808;20.336;2023-03-17T04:57:13;-12.50;99.90
12384;DHT22;6256;63.808;20.336;2023-03-17T04:59:38;-12.40;99.90
12384;DHT22;6256;63.808;20.336;2023-03-17T05:02:04;-12.40;99.90
12384;DHT22;6256;63.808;20.336;2023-03-17T05:04:29;-12.30;99.90
12384;DHT22;6256;63.808;20.336;2023-03-17T05:06:55;-12.30;99.90
12384;DHT22;6256;63.808;20.336;2023-03-17T05:09:23;-12.30;99.90
12384;DHT22;6256;63.808;20.336;2023-03-17T05:11:49;-12.30;99.90
12384;DHT22;6256;63.808;20.336;2023-03-17T05:14:16;-12.20;99.90
12384;DHT22;6256;63.808;20.336;2023-03-17T05:16:42;-12.10;99.90
12384;DHT22;6256;63.808;20.336;2023-03-17T05:19:07;-12.10;99.90
12384;DHT22;6256;63.808;20.336;2023-03-17T05:21:33;-12.00;99.90
12384;DHT22;6256;63.808;20.336;2023-03-17T05:23:59;-11.90;99.90
12384;DHT22;6256;63.808;20.336;2023-03-17T05:26:24;-11.90;99.90
12384;DHT22;6256;63.808;20.336;2023-03-17T05:28:51;-11.90;99.90
12384;DHT22;6256;63.808;20.336;2023-03-17T05:31:17;-11.80;99.90
12384;DHT22;6256;63.808;20.336;2023-03-17T05:33:43;-11.80;99.90
12384;DHT22;6256;63.808;20.336;2023-03-17T05:36:11;-11.70;99.90
12384;DHT22;6256;63.808;20.336;2023-03-17T05:38:36;-11.60;99.90
12384;DHT22;6256;63.808;20.336;2023-03-17T05:41:02;-11.60;99.90
12384;DHT22;6256;63.808;20.336;2023-03-17T05:43:28;-11.40;99.90
12384;DHT22;6256;63.808;20.336;2023-03-17T05:45:54;-11.30;99.90
12384;DHT22;6256;63.808;20.336;2023-03-17T05:48:20;-11.10;99.90
12384;DHT22;6256;63.808;20.336;2023-03-17T05:50:47;-11.00;99.90
12384;DHT22;6256;63.808;20.336;2023-03-17T05:53:13;-10.90;99.90
12384;DHT22;6256;63.808;20.336;2023-03-17T05:55:38;-10.80;99.90
12384;DHT22;6256;63.808;20.336;2023-03-17T05:58:04;-10.70;99.90
12384;DHT22;6256;63.808;20.336;2023-03-17T06:00:31;-10.60;99.90
12384;DHT22;6256;63.808;20.336;2023-03-17T06:02:57;-10.50;99.90
12384;DHT22;6256;63.808;20.336;2023-03-17T06:05:23;-10.30;99.90
12384;DHT22;6256;63.808;20.336;2023-03-17T06:07:49;-10.20;99.90
12384;DHT22;6256;63.808;20.336;2023-03-17T06:10:15;-10.10;99.90
12384;DHT22;6256;63.808;20.336;2023-03-17T06:12:41;-10.10;99.90
12384;DHT22;6256;63.808;20.336;2023-03-17T06:15:07;-10.00;99.90
12384;DHT22;6256;63.808;20.336;2023-03-17T06:17:34;-10.00;99.90
12384;DHT22;6256;63.808;20.336;2023-03-17T06:20:00;-10.00;99.90
12384;DHT22;6256;63.808;20.336;2023-03-17T06:22:26;-9.90;99.90
12384;DHT22;6256;63.808;20.336;2023-03-17T06:24:52;-9.70;99.90
12384;DHT22;6256;63.808;20.336;2023-03-17T06:27:18;-9.60;99.90
12384;DHT22;6256;63.808;20.336;2023-03-17T06:29:44;-9.50;99.90
12384;DHT22;6256;63.808;20.336;2023-03-17T06:32:10;-9.40;99.90
12384;DHT22;6256;63.808;20.336;2023-03-17T06:34:36;-9.30;99.90
12384;DHT22;6256;63.808;20.336;2023-03-17T06:37:01;-9.10;99.90
12384;DHT22;6256;63.808;20.336;2023-03-17T06:39:27;-9.00;99.90
12384;DHT22;6256;63.808;20.336;2023-03-17T06:41:53;-8.90;99.90
12384;DHT22;6256;63.808;20.336;2023-03-17T06:44:19;-8.70;99.90
12384;DHT22;6256;63.808;20.336;2023-03-17T06:46:44;-8.60;99.90
12384;DHT22;6256;63.808;20.336;2023-03-17T06:49:10;-8.40;99.90
12384;DHT22;6256;63.808;20.336;2023-03-17T06:51:38;-8.20;99.90
12384;DHT22;6256;63.808;20.336;2023-03-17T06:54:04;-8.00;99.90
12384;DHT22;6256;63.808;20.336;2023-03-17T06:56:31;-7.90;99.90
12384;DHT22;6256;63.808;20.336;2023-03-17T06:58:57;-7.80;99.90
12384;DHT22;6256;63.808;20.336;2023-03-17T07:01:24;-7.60;99.90
12384;DHT22;6256;63.808;20.336;2023-03-17T07:03:50;-7.50;99.90
12384;DHT22;6256;63.808;20.336;2023-03-17T07:06:16;-7.30;99.90
12384;DHT22;6256;63.808;20.336;2023-03-17T07:08:41;-7.20;99.90
12384;DHT22;6256;63.808;20.336;2023-03-17T07:11:07;-7.00;99.90
12384;DHT22;6256;63.808;20.336;2023-03-17T07:13:33;-6.90;99.90
12384;DHT22;6256;63.808;20.336;2023-03-17T07:16:02;-6.80;99.90
12384;DHT22;6256;63.808;20.336;2023-03-17T07:18:28;-6.70;99.90
12384;DHT22;6256;63.808;20.336;2023-03-17T07:21:00;-6.60;99.90
12384;DHT22;6256;63.808;20.336;2023-03-17T07:23:28;-6.40;99.90
12384;DHT22;6256;63.808;20.336;2023-03-17T07:25:55;-6.30;99.90
12384;DHT22;6256;63.808;20.336;2023-03-17T07:28:22;-6.30;99.90
12384;DHT22;6256;63.808;20.336;2023-03-17T07:30:48;-6.20;99.90
12384;DHT22;6256;63.808;20.336;2023-03-17T07:33:14;-6.00;99.90
12384;DHT22;6256;63.808;20.336;2023-03-17T07:35:45;-5.90;99.90
12384;DHT22;6256;63.808;20.336;2023-03-17T07:38:10;-5.80;99.90
12384;DHT22;6256;63.808;20.336;2023-03-17T07:40:36;-5.70;99.90
12384;DHT22;6256;63.808;20.336;2023-03-17T07:43:03;-5.70;99.90
12384;DHT22;6256;63.808;20.336;2023-03-17T07:45:29;-5.60;99.90
12384;DHT22;6256;63.808;20.336;2023-03-17T07:47:55;-5.40;99.90
12384;DHT22;6256;63.808;20.336;2023-03-17T07:50:21;-5.40;99.90
12384;DHT22;6256;63.808;20.336;2023-03-17T07:52:47;-5.30;99.90
12384;DHT22;6256;63.808;20.336;2023-03-17T07:55:13;-5.10;99.90
12384;DHT22;6256;63.808;20.336;2023-03-17T07:57:39;-5.00;99.90
12384;DHT22;6256;63.808;20.336;2023-03-17T08:00:06;-5.00;99.90
12384;DHT22;6256;63.808;20.336;2023-03-17T08:02:36;-4.90;99.90
12384;DHT22;6256;63.808;20.336;2023-03-17T08:05:02;-4.80;99.90
12384;DHT22;6256;63.808;20.336;2023-03-17T08:07:29;-4.70;99.90
12384;DHT22;6256;63.808;20.336;2023-03-17T08:09:56;-4.60;99.90
12384;DHT22;6256;63.808;20.336;2023-03-17T08:12:22;-4.50;99.90
12384;DHT22;6256;63.808;20.336;2023-03-17T08:14:49;-4.40;99.90
12384;DHT22;6256;63.808;20.336;2023-03-17T08:17:14;-4.40;99.90
12384;DHT22;6256;63.808;20.336;2023-03-17T08:19:41;-4.30;99.90
12384;DHT22;6256;63.808;20.336;2023-03-17T08:22:07;-4.20;99.90
12384;DHT22;6256;63.808;20.336;2023-03-17T08:24:33;-4.10;99.90
12384;DHT22;6256;63.808;20.336;2023-03-17T08:26:59;-4.10;99.90
12384;DHT22;6256;63.808;20.336;2023-03-17T08:29:25;-4.00;99.90
12384;DHT22;6256;63.808;20.336;2023-03-17T08:31:50;-3.90;99.90
12384;DHT22;6256;63.808;20.336;2023-03-17T08:34:16;-3.80;99.90
12384;DHT22;6256;63.808;20.336;2023-03-17T08:36:42;-3.70;99.90
12384;DHT22;6256;63.808;20.336;2023-03-17T08:39:08;-3.70;99.90
12384;DHT22;6256;63.808;20.336;2023-03-17T08:41:35;-3.70;99.90
12384;DHT22;6256;63.808;20.336;2023-03-17T08:44:02;-3.60;99.90
12384;DHT22;6256;63.808;20.336;2023-03-17T08:46:31;-3.50;99.90
12384;DHT22;6256;63.808;20.336;2023-03-17T08:48:58;-3.40;99.90
12384;DHT22;6256;63.808;20.336;2023-03-17T08:51:30;-3.30;99.90
12384;DHT22;6256;63.808;20.336;2023-03-17T08:53:56;-3.20;99.90
12384;DHT22;6256;63.808;20.336;2023-03-17T08:56:23;-3.10;99.90
12384;DHT22;6256;63.808;20.336;2023-03-17T08:58:49;-3.00;99.90
12384;DHT22;6256;63.808;20.336;2023-03-17T09:01:15;-2.80;99.90
12384;DHT22;6256;63.808;20.336;2023-03-17T09:03:41;-2.70;99.90
12384;DHT22;6256;63.808;20.336;2023-03-17T09:06:09;-2.70;99.90
12384;DHT22;6256;63.808;20.336;2023-03-17T09:08:37;-2.60;99.90
12384;DHT22;6256;63.808;20.336;2023-03-17T09:11:07;-2.50;99.90
12384;DHT22;6256;63.808;20.336;2023-03-17T09:13:35;-2.40;99.90
12384;DHT22;6256;63.808;20.336;2023-03-17T09:16:04;-2.30;99.90
12384;DHT22;6256;63.808;20.336;2023-03-17T09:18:29;-2.20;99.90
12384;DHT22;6256;63.808;20.336;2023-03-17T09:20:57;-2.10;99.90
12384;DHT22;6256;63.808;20.336;2023-03-17T09:23:23;-2.00;99.90
12384;DHT22;6256;63.808;20.336;2023-03-17T09:25:50;-1.90;99.90
12384;DHT22;6256;63.808;20.336;2023-03-17T09:28:16;-1.70;99.90
12384;DHT22;6256;63.808;20.336;2023-03-17T09:30:43;-1.50;99.90
12384;DHT22;6256;63.808;20.336;2023-03-17T09:33:10;-1.30;99.90
12384;DHT22;6256;63.808;20.336;2023-03-17T09:35:36;-1.00;99.90
12384;DHT22;6256;63.808;20.336;2023-03-17T09:38:02;-0.80;99.90
12384;DHT22;6256;63.808;20.336;2023-03-17T09:40:51;-0.80;99.90
12384;DHT22;6256;63.808;20.336;2023-03-17T09:49:12;-0.60;99.90
12384;DHT22;6256;63.808;20.336;2023-03-17T09:51:39;-0.70;99.90
12384;DHT22;6256;63.808;20.336;2023-03-17T09:56:47;-0.50;99.90
12384;DHT22;6256;63.808;20.336;2023-03-17T09:59:29;-0.50;99.90
12384;DHT22;6256;63.808;20.336;2023-03-17T10:01:57;-0.50;99.90
12384;DHT22;6256;63.808;20.336;2023-03-17T10:04:23;-0.40;99.90
12384;DHT22;6256;63.808;20.336;2023-03-17T10:06:50;-0.40;99.90
12384;DHT22;6256;63.808;20.336;2023-03-17T10:09:39;-0.40;99.90
12384;DHT22;6256;63.808;20.336;2023-03-17T10:17:24;-0.20;99.90
12384;DHT22;6256;63.808;20.336;2023-03-17T10:22:33;0.00;99.90
12384;DHT22;6256;63.808;20.336;2023-03-17T10:25:23;0.10;99.90
12384;DHT22;6256;63.808;20.336;2023-03-17T10:30:32;0.10;99.90
12384;DHT22;6256;63.808;20.336;2023-03-17T10:33:01;0.20;99.90
12384;DHT22;6256;63.808;20.336;2023-03-17T10:35:29;0.20;99.90
12384;DHT22;6256;63.808;20.336;2023-03-17T10:38:01;0.20;99.90
12384;DHT22;6256;63.808;20.336;2023-03-17T10:40:38;0.30;99.90
12384;DHT22;6256;63.808;20.336;2023-03-17T10:43:05;0.30;99.90
12384;DHT22;6256;63.808;20.336;2023-03-17T10:45:36;0.50;99.90
12384;DHT22;6256;63.808;20.336;2023-03-17T10:48:07;0.60;99.90
12384;DHT22;6256;63.808;20.336;2023-03-17T10:50:38;0.70;99.90
12384;DHT22;6256;63.808;20.336;2023-03-17T10:53:20;0.70;99.90
12384;DHT22;6256;63.808;20.336;2023-03-17T10:55:56;0.80;99.90
12384;DHT22;6256;63.808;20.336;2023-03-17T11:03:59;1.10;99.90
12384;DHT22;6256;63.808;20.336;2023-03-17T11:06:36;1.30;99.90
12384;DHT22;6256;63.808;20.336;2023-03-17T11:09:08;1.60;99.90
12384;DHT22;6256;63.808;20.336;2023-03-17T11:11:43;2.00;99.90
12384;DHT22;6256;63.808;20.336;2023-03-17T11:14:17;2.40;99.90
12384;DHT22;6256;63.808;20.336;2023-03-17T11:17:03;2.60;99.90
12384;DHT22;6256;63.808;20.336;2023-03-17T11:22:38;3.00;99.90
12384;DHT22;6256;63.808;20.336;2023-03-17T11:25:16;2.80;99.90
12384;DHT22;6256;63.808;20.336;2023-03-17T11:27:52;2.90;99.90
12384;DHT22;6256;63.808;20.336;2023-03-17T11:32:56;2.90;99.90
12384;DHT22;6256;63.808;20.336;2023-03-17T11:46:36;2.60;99.90
12384;DHT22;6256;63.808;20.336;2023-03-17T11:49:26;2.60;99.90
12384;DHT22;6256;63.808;20.336;2023-03-17T11:51:59;2.70;99.90
12384;DHT22;6256;63.808;20.336;2023-03-17T11:57:30;2.30;99.90
12384;DHT22;6256;63.808;20.336;2023-03-17T12:00:13;2.20;99.90
12384;DHT22;6256;63.808;20.336;2023-03-17T12:02:45;2.20;99.90
12384;DHT22;6256;63.808;20.336;2023-03-17T12:05:17;2.10;99.90
12384;DHT22;6256;63.808;20.336;2023-03-17T12:10:40;1.80;99.90
12384;DHT22;6256;63.808;20.336;2023-03-17T12:13:17;2.00;99.90
12384;DHT22;6256;63.808;20.336;2023-03-17T12:18:27;1.80;99.90
12384;DHT22;6256;63.808;20.336;2023-03-17T12:23:55;1.60;99.90
12384;DHT22;6256;63.808;20.336;2023-03-17T12:26:46;1.50;99.90
12384;DHT22;6256;63.808;20.336;2023-03-17T12:32:11;1.40;99.90
12384;DHT22;6256;63.808;20.336;2023-03-17T12:37:07;1.50;99.90
12384;DHT22;6256;63.808;20.336;2023-03-17T12:39:35;1.60;99.90
12384;DHT22;6256;63.808;20.336;2023-03-17T12:53:37;1.30;99.90
12384;DHT22;6256;63.808;20.336;2023-03-17T12:56:10;1.30;99.90
12384;DHT22;6256;63.808;20.336;2023-03-17T12:58:36;1.30;99.90
12384;DHT22;6256;63.808;20.336;2023-03-17T13:01:31;1.20;99.90
12384;DHT22;6256;63.808;20.336;2023-03-17T13:04:31;1.20;99.90
12384;DHT22;6256;63.808;20.336;2023-03-17T13:07:15;1.10;99.90
12384;DHT22;6256;63.808;20.336;2023-03-17T13:15:25;1.20;99.90
12384;DHT22;6256;63.808;20.336;2023-03-17T13:20:42;1.40;99.90
12384;DHT22;6256;63.808;20.336;2023-03-17T13:25:54;1.50;99.90
12384;DHT22;6256;63.808;20.336;2023-03-17T13:28:26;1.50;99.90
12384;DHT22;6256;63.808;20.336;2023-03-17T13:34:09;1.20;99.90
12384;DHT22;6256;63.808;20.336;2023-03-17T13:36:38;1.10;99.90
12384;DHT22;6256;63.808;20.336;2023-03-17T13:45:48;0.70;99.90
12384;DHT22;6256;63.808;20.336;2023-03-17T13:50:43;0.70;99.90
12384;DHT22;6256;63.808;20.336;2023-03-17T13:53:12;0.70;99.90
12384;DHT22;6256;63.808;20.336;2023-03-17T13:56:21;0.60;99.90
12384;DHT22;6256;63.808;20.336;2023-03-17T14:01:40;0.50;99.90
12384;DHT22;6256;63.808;20.336;2023-03-17T14:04:19;0.50;99.90
12384;DHT22;6256;63.808;20.336;2023-03-17T14:06:47;0.40;99.90
12384;DHT22;6256;63.808;20.336;2023-03-17T14:11:52;0.20;99.90
12384;DHT22;6256;63.808;20.336;2023-03-17T14:14:45;0.20;99.90
12384;DHT22;6256;63.808;20.336;2023-03-17T14:17:23;0.20;99.90
12384;DHT22;6256;63.808;20.336;2023-03-17T14:20:01;0.20;99.90
12384;DHT22;6256;63.808;20.336;2023-03-17T14:22:30;0.10;99.90
12384;DHT22;6256;63.808;20.336;2023-03-17T14:24:59;0.10;99.90
12384;DHT22;6256;63.808;20.336;2023-03-17T14:27:26;0.10;99.90
12384;DHT22;6256;63.808;20.336;2023-03-17T14:29:53;0.20;99.90
12384;DHT22;6256;63.808;20.336;2023-03-17T14:32:22;0.30;99.90
12384;DHT22;6256;63.808;20.336;2023-03-17T14:34:53;0.40;99.90
12384;DHT22;6256;63.808;20.336;2023-03-17T14:37:20;0.40;99.90
12384;DHT22;6256;63.808;20.336;2023-03-17T14:39:52;0.50;99.90
12384;DHT22;6256;63.808;20.336;2023-03-17T14:42:26;0.50;99.90
12384;DHT22;6256;63.808;20.336;2023-03-17T14:45:01;0.50;99.90
12384;DHT22;6256;63.808;20.336;2023-03-17T14:47:27;0.50;99.90
12384;DHT22;6256;63.808;20.336;2023-03-17T14:49:53;0.40;99.90
12384;DHT22;6256;63.808;20.336;2023-03-17T14:52:25;0.40;99.90
12384;DHT22;6256;63.808;20.336;2023-03-17T14:54:54;0.40;99.90
12384;DHT22;6256;63.808;20.336;2023-03-17T14:57:27;0.40;99.90
12384;DHT22;6256;63.808;20.336;2023-03-17T15:02:31;0.30;99.90
12384;DHT22;6256;63.808;20.336;2023-03-17T15:07:41;0.30;99.90
12384;DHT22;6256;63.808;20.336;2023-03-17T15:10:18;0.30;99.90
12384;DHT22;6256;63.808;20.336;2023-03-17T15:12:45;0.30;99.90
12384;DHT22;6256;63.808;20.336;2023-03-17T15:15:22;0.30;99.90
12384;DHT22;6256;63.808;20.336;2023-03-17T15:17:53;0.30;99.90
12384;DHT22;6256;63.808;20.336;2023-03-17T15:20:19;0.30;99.90
12384;DHT22;6256;63.808;20.336;2023-03-17T15:22:55;0.20;99.90
12384;DHT22;6256;63.808;20.336;2023-03-17T15:25:37;0.20;99.90
12384;DHT22;6256;63.808;20.336;2023-03-17T15:28:18;0.20;99.90
12384;DHT22;6256;63.808;20.336;2023-03-17T15:30:52;0.20;99.90
12384;DHT22;6256;63.808;20.336;2023-03-17T15:33:19;0.20;99.90
12384;DHT22;6256;63.808;20.336;2023-03-17T15:35:47;0.30;99.90
12384;DHT22;6256;63.808;20.336;2023-03-17T15:38:12;0.30;99.90
12384;DHT22;6256;63.808;20.336;2023-03-17T15:40:38;0.30;99.90
12384;DHT22;6256;63.808;20.336;2023-03-17T15:43:04;0.20;99.90
12384;DHT22;6256;63.808;20.336;2023-03-17T15:45:30;0.20;99.90
12384;DHT22;6256;63.808;20.336;2023-03-17T15:47:56;0.10;99.90
12384;DHT22;6256;63.808;20.336;2023-03-17T15:50:25;0.10;99.90
12384;DHT22;6256;63.808;20.336;2023-03-17T15:52:53;0.10;99.90
12384;DHT22;6256;63.808;20.336;2023-03-17T15:55:28;0.10;99.90
12384;DHT22;6256;63.808;20.336;2023-03-17T15:57:54;0.10;99.90
12384;DHT22;6256;63.808;20.336;2023-03-17T16:00:21;0.10;99.90
12384;DHT22;6256;63.808;20.336;2023-03-17T16:02:52;0.10;99.90
12384;DHT22;6256;63.808;20.336;2023-03-17T16:05:24;0.00;99.90
12384;DHT22;6256;63.808;20.336;2023-03-17T16:07:51;0.00;99.90
12384;DHT22;6256;63.808;20.336;2023-03-17T16:12:45;0.00;99.90
12384;DHT22;6256;63.808;20.336;2023-03-17T16:15:22;-0.10;99.90
12384;DHT22;6256;63.808;20.336;2023-03-17T16:17:50;-0.10;99.90
12384;DHT22;6256;63.808;20.336;2023-03-17T16:22:48;-0.10;99.90
12384;DHT22;6256;63.808;20.336;2023-03-17T16:25:21;-0.10;99.90
12384;DHT22;6256;63.808;20.336;2023-03-17T16:27:49;-0.10;99.90
12384;DHT22;6256;63.808;20.336;2023-03-17T16:30:29;-0.10;99.90
12384;DHT22;6256;63.808;20.336;2023-03-17T16:33:01;-0.20;99.90
12384;DHT22;6256;63.808;20.336;2023-03-17T16:35:27;-0.10;99.90
12384;DHT22;6256;63.808;20.336;2023-03-17T16:37:53;-0.20;99.90
12384;DHT22;6256;63.808;20.336;2023-03-17T16:40:32;-0.20;99.90
12384;DHT22;6256;63.808;20.336;2023-03-17T16:42:58;-0.20;99.90
12384;DHT22;6256;63.808;20.336;2023-03-17T16:45:29;-0.20;99.90
12384;DHT22;6256;63.808;20.336;2023-03-17T16:48:00;-0.30;99.90
12384;DHT22;6256;63.808;20.336;2023-03-17T16:50:29;-0.30;99.90
12384;DHT22;6256;63.808;20.336;2023-03-17T16:52:55;-0.30;99.90
12384;DHT22;6256;63.808;20.336;2023-03-17T16:55:23;-0.30;99.90
12384;DHT22;6256;63.808;20.336;2023-03-17T16:57:51;-0.30;99.90
12384;DHT22;6256;63.808;20.336;2023-03-17T17:00:23;-0.30;99.90
12384;DHT22;6256;63.808;20.336;2023-03-17T17:02:50;-0.30;99.90
12384;DHT22;6256;63.808;20.336;2023-03-17T17:05:18;-0.30;99.90
12384;DHT22;6256;63.808;20.336;2023-03-17T17:07:45;-0.30;99.90
12384;DHT22;6256;63.808;20.336;2023-03-17T17:10:13;-0.30;99.90
12384;DHT22;6256;63.808;20.336;2023-03-17T17:12:40;-0.30;99.90
12384;DHT22;6256;63.808;20.336;2023-03-17T17:15:06;-0.40;99.90
12384;DHT22;6256;63.808;20.336;2023-03-17T17:17:33;-0.40;99.90
12384;DHT22;6256;63.808;20.336;2023-03-17T17:19:59;-0.30;99.90
12384;DHT22;6256;63.808;20.336;2023-03-17T17:22:27;-0.40;99.90
12384;DHT22;6256;63.808;20.336;2023-03-17T17:24:52;-0.40;99.90
12384;DHT22;6256;63.808;20.336;2023-03-17T17:27:18;-0.30;99.90
12384;DHT22;6256;63.808;20.336;2023-03-17T17:29:44;-0.30;99.90
12384;DHT22;6256;63.808;20.336;2023-03-17T17:32:10;-0.30;99.90
12384;DHT22;6256;63.808;20.336;2023-03-17T17:34:37;-0.30;99.90